Time;durP1;ratioP1;P1;durP2;ratioP2;P2;SDS_P1;SDS_P2;PMS_P1;PMS_P2;Temp;Humidity;BMP_temperature;BMP_pressure;BME280_temperature;BME280_humidity;BME280_pressure;Samples;Min_cycle;Max_cycle;Signal;HPM_P1;HPM_P2
2022/06/29 00:00:49;;;;;;;;;;;15.40;99.90;;;;;;5072188;28;20390;-67
2022/06/29 00:03:15;;;;;;;;;;;15.50;99.90;;;;;;5072611;28;19924;-69
2022/06/29 00:05:41;;;;;;;;;;;15.70;99.90;;;;;;5072524;28;19920;-67
2022/06/29 00:08:07;;;;;;;;;;;15.30;99.90;;;;;;5072195;28;20035;-67
2022/06/29 00:10:33;;;;;;;;;;;15.40;99.90;;;;;;5087846;28;19924;-67
2022/06/29 00:12:58;;;;;;;;;;;15.30;99.90;;;;;;5072207;28;20357;-67
2022/06/29 00:15:24;;;;;;;;;;;15.30;99.90;;;;;;5072322;28;19920;-67
2022/06/29 00:17:49;;;;;;;;;;;15.50;99.90;;;;;;5072258;28;20038;-67
2022/06/29 00:20:15;;;;;;;;;;;15.40;99.90;;;;;;5072298;28;19928;-67
2022/06/29 00:22:42;;;;;;;;;;;15.50;99.90;;;;;;5072193;28;19951;-68
2022/06/29 00:25:08;;;;;;;;;;;15.20;99.90;;;;;;5072203;28;19927;-67
2022/06/29 00:27:34;;;;;;;;;;;15.60;99.90;;;;;;5072284;28;19990;-69
2022/06/29 00:29:59;;;;;;;;;;;15.30;99.90;;;;;;5071794;28;20042;-68
2022/06/29 00:32:25;;;;;;;;;;;15.40;99.90;;;;;;5072032;28;19924;-68
2022/06/29 00:34:51;;;;;;;;;;;15.60;99.90;;;;;;5070789;28;19967;-67
2022/06/29 00:37:16;;;;;;;;;;;16.40;99.90;;;;;;5072122;28;19924;-70
2022/06/29 00:39:42;;;;;;;;;;;15.60;99.90;;;;;;5071765;28;19920;-67
2022/06/29 00:42:07;;;;;;;;;;;15.30;99.90;;;;;;5071708;28;19973;-66
2022/06/29 00:44:33;;;;;;;;;;;15.70;99.90;;;;;;5072065;28;20392;-67
2022/06/29 00:47:03;;;;;;;;;;;15.40;99.90;;;;;;5072294;28;19960;-67
2022/06/29 00:49:29;;;;;;;;;;;15.50;99.90;;;;;;5071881;28;20039;-67
2022/06/29 00:52:04;;;;;;;;;;;15.60;99.90;;;;;;5071902;28;19999;-67
2022/06/29 00:54:31;;;;;;;;;;;15.40;99.90;;;;;;5087462;28;19920;-67
2022/06/29 00:56:58;;;;;;;;;;;15.60;99.90;;;;;;5071916;28;19924;-68
2022/06/29 00:59:24;;;;;;;;;;;15.40;99.90;;;;;;5071870;28;19924;-67
2022/06/29 01:01:50;;;;;;;;;;;15.30;99.90;;;;;;5071917;28;20391;-66
2022/06/29 01:04:15;;;;;;;;;;;15.50;99.90;;;;;;5071715;28;19970;-67
2022/06/29 01:06:41;;;;;;;;;;;15.40;99.90;;;;;;5071862;28;20348;-66
2022/06/29 01:09:07;;;;;;;;;;;15.10;99.90;;;;;;5071801;28;19920;-66
2022/06/29 01:11:33;;;;;;;;;;;15.30;99.90;;;;;;5070383;28;19969;-66
2022/06/29 01:13:58;;;;;;;;;;;15.40;99.90;;;;;;5071666;28;19924;-67
2022/06/29 01:16:24;;;;;;;;;;;15.60;99.90;;;;;;5087352;28;19971;-67
2022/06/29 01:18:49;;;;;;;;;;;15.20;99.90;;;;;;5071631;28;19993;-67
2022/06/29 01:21:18;;;;;;;;;;;15.10;99.90;;;;;;5071299;28;19925;-66
2022/06/29 01:23:43;;;;;;;;;;;16.50;99.90;;;;;;5071686;28;19928;-66
2022/06/29 01:26:11;;;;;;;;;;;15.30;99.90;;;;;;5071607;28;19928;-69
2022/06/29 01:28:39;;;;;;;;;;;15.30;99.90;;;;;;5071348;28;19928;-67
2022/06/29 01:31:11;;;;;;;;;;;15.20;99.90;;;;;;5071565;28;19979;-66
2022/06/29 01:33:37;;;;;;;;;;;14.70;99.90;;;;;;5070302;28;19930;-66
2022/06/29 01:36:03;;;;;;;;;;;14.90;99.90;;;;;;5071434;28;19924;-66
2022/06/29 01:38:28;;;;;;;;;;;15.00;99.90;;;;;;5071549;28;20352;-66
2022/06/29 01:40:54;;;;;;;;;;;15.00;99.90;;;;;;5071434;28;19924;-66
2022/06/29 01:43:20;;;;;;;;;;;16.10;99.90;;;;;;5071397;28;19959;-67
2022/06/29 01:45:45;;;;;;;;;;;15.00;99.90;;;;;;5071446;28;19920;-67
2022/06/29 01:48:11;;;;;;;;;;;14.60;99.90;;;;;;5071381;28;19931;-68
2022/06/29 01:50:36;;;;;;;;;;;14.70;99.90;;;;;;5070235;28;19931;-67
2022/06/29 01:53:02;;;;;;;;;;;14.80;99.90;;;;;;5071761;28;19920;-66
2022/06/29 01:55:27;;;;;;;;;;;14.80;99.90;;;;;;5074891;28;19920;-66
2022/06/29 01:57:53;;;;;;;;;;;15.00;99.90;;;;;;5074816;28;19928;-66
2022/06/29 02:00:18;;;;;;;;;;;14.60;99.90;;;;;;5074838;28;19973;-66
2022/06/29 02:02:44;;;;;;;;;;;14.80;99.90;;;;;;5074801;28;19967;-67
2022/06/29 02:05:10;;;;;;;;;;;14.60;99.90;;;;;;5074795;28;19942;-66
2022/06/29 02:07:35;;;;;;;;;;;15.00;99.90;;;;;;5073485;28;19920;-66
2022/06/29 02:10:01;;;;;;;;;;;14.90;99.90;;;;;;5074556;28;19925;-65
2022/06/29 02:12:26;;;;;;;;;;;14.70;99.90;;;;;;5074859;28;19947;-70
2022/06/29 02:14:52;;;;;;;;;;;16.00;99.90;;;;;;5074820;28;20276;-67
2022/06/29 02:17:19;;;;;;;;;;;14.50;99.90;;;;;;5074847;28;19921;-67
2022/06/29 02:19:45;;;;;;;;;;;14.90;99.90;;;;;;5074506;28;20297;-66
2022/06/29 02:22:11;;;;;;;;;;;14.80;99.90;;;;;;5074471;28;19943;-66
2022/06/29 02:24:37;;;;;;;;;;;14.70;99.90;;;;;;5073376;28;20708;-67
2022/06/29 02:27:02;;;;;;;;;;;14.70;99.90;;;;;;5074266;28;19925;-68
2022/06/29 02:29:28;;;;;;;;;;;14.80;99.90;;;;;;5074114;28;19920;-67
2022/06/29 02:34:43;;;;;;;;;;;14.50;99.90;;;;;;5074200;28;19977;-67
2022/06/29 02:37:09;;;;;;;;;;;14.70;99.90;;;;;;5073943;28;20335;-66
2022/06/29 02:39:35;;;;;;;;;;;14.70;99.90;;;;;;5074113;28;19978;-66
2022/06/29 02:42:01;;;;;;;;;;;14.30;99.90;;;;;;5074295;28;19964;-66
2022/06/29 02:44:26;;;;;;;;;;;14.50;99.90;;;;;;5073977;28;19924;-66
2022/06/29 02:46:52;;;;;;;;;;;14.60;99.90;;;;;;5074191;28;19924;-67
2022/06/29 02:49:17;;;;;;;;;;;14.70;99.90;;;;;;5073827;28;19921;-67
2022/06/29 02:51:43;;;;;;;;;;;14.70;99.90;;;;;;5073818;28;20028;-67
2022/06/29 02:54:09;;;;;;;;;;;14.80;99.90;;;;;;5073777;28;19935;-68
2022/06/29 02:56:34;;;;;;;;;;;14.60;99.90;;;;;;5073468;28;19920;-66
2022/06/29 02:59:00;;;;;;;;;;;14.60;99.90;;;;;;5073735;28;19924;-67
2022/06/29 03:01:25;;;;;;;;;;;14.50;99.90;;;;;;5073693;28;20387;-66
2022/06/29 03:03:51;;;;;;;;;;;14.80;99.90;;;;;;5072299;28;19920;-66
2022/06/29 03:06:16;;;;;;;;;;;14.30;99.90;;;;;;5073823;28;19993;-66
2022/06/29 03:08:42;;;;;;;;;;;14.30;99.90;;;;;;5073436;28;19928;-66
2022/06/29 03:11:07;;;;;;;;;;;14.70;99.90;;;;;;5073300;28;19924;-67
2022/06/29 03:13:33;;;;;;;;;;;14.60;99.90;;;;;;5073360;28;19924;-66
2022/06/29 03:15:59;;;;;;;;;;;14.60;99.90;;;;;;5073324;28;20292;-66
2022/06/29 03:18:24;;;;;;;;;;;14.70;99.90;;;;;;5073262;28;20018;-65
2022/06/29 03:20:50;;;;;;;;;;;15.00;99.90;;;;;;5072900;28;19924;-66
2022/06/29 03:23:15;;;;;;;;;;;14.70;99.90;;;;;;5073238;28;19924;-68
2022/06/29 03:25:41;;;;;;;;;;;14.70;99.90;;;;;;5073149;28;19921;-66
2022/06/29 03:28:06;;;;;;;;;;;14.70;99.90;;;;;;5073362;28;19929;-67
2022/06/29 03:30:32;;;;;;;;;;;14.80;99.90;;;;;;5072986;28;20316;-66
2022/06/29 03:32:57;;;;;;;;;;;14.80;99.90;;;;;;5072977;28;19924;-67
2022/06/29 03:35:23;;;;;;;;;;;14.60;99.90;;;;;;5073035;28;19962;-66
2022/06/29 03:37:50;;;;;;;;;;;14.90;99.90;;;;;;5072922;28;19920;-66
2022/06/29 03:40:16;;;;;;;;;;;14.90;99.90;;;;;;5072881;28;19924;-65
2022/06/29 03:42:41;;;;;;;;;;;14.70;99.90;;;;;;5072883;28;20257;-67
2022/06/29 03:45:07;;;;;;;;;;;14.90;99.90;;;;;;5072796;28;19924;-66
2022/06/29 03:47:33;;;;;;;;;;;14.70;99.90;;;;;;5072758;28;19924;-67
2022/06/29 03:49:59;;;;;;;;;;;14.80;99.90;;;;;;5072688;28;19982;-66
2022/06/29 03:52:24;;;;;;;;;;;14.80;99.90;;;;;;5072845;28;19928;-66
2022/06/29 03:54:50;;;;;;;;;;;14.80;99.90;;;;;;5072716;28;19927;-66
2022/06/29 03:57:15;;;;;;;;;;;14.80;99.90;;;;;;5072611;28;19927;-65
2022/06/29 03:59:41;;;;;;;;;;;14.70;99.90;;;;;;5072540;28;19920;-65
2022/06/29 04:02:07;;;;;;;;;;;14.80;99.90;;;;;;5072538;28;20336;-66
2022/06/29 04:04:32;;;;;;;;;;;14.60;99.90;;;;;;5072588;28;19924;-66
2022/06/29 04:06:58;;;;;;;;;;;14.70;99.90;;;;;;5072738;28;19970;-68
2022/06/29 04:09:23;;;;;;;;;;;14.70;99.90;;;;;;5072507;28;20025;-66
2022/06/29 04:11:49;;;;;;;;;;;14.90;99.90;;;;;;5071505;28;20368;-65
2022/06/29 04:14:19;;;;;;;;;;;14.90;99.90;;;;;;5072297;28;19920;-66
2022/06/29 04:16:44;;;;;;;;;;;14.60;99.90;;;;;;5070882;28;20287;-66
2022/06/29 04:19:10;;;;;;;;;;;14.80;99.90;;;;;;5072350;28;19920;-66
2022/06/29 04:21:36;;;;;;;;;;;14.90;99.90;;;;;;5072247;28;20451;-65
2022/06/29 04:24:01;;;;;;;;;;;15.10;99.90;;;;;;5072176;28;19926;-65
2022/06/29 04:26:27;;;;;;;;;;;15.10;99.90;;;;;;5070926;28;19920;-64
2022/06/29 04:28:52;;;;;;;;;;;15.00;99.90;;;;;;5071751;28;20010;-66
2022/06/29 04:31:18;;;;;;;;;;;14.80;99.90;;;;;;5072123;28;20011;-66
2022/06/29 04:33:44;;;;;;;;;;;16.20;99.90;;;;;;5072085;28;19928;-66
2022/06/29 04:36:09;;;;;;;;;;;15.00;99.90;;;;;;5071755;28;19924;-65
2022/06/29 04:38:35;;;;;;;;;;;15.20;99.90;;;;;;5072143;28;19970;-66
2022/06/29 04:41:00;;;;;;;;;;;14.80;99.90;;;;;;5087600;28;19927;-66
2022/06/29 04:43:27;;;;;;;;;;;15.50;99.90;;;;;;5087638;28;19924;-68
2022/06/29 04:48:37;;;;;;;;;;;15.30;99.90;;;;;;5072045;28;19924;-65
2022/06/29 04:51:03;;;;;;;;;;;15.20;99.90;;;;;;5071765;28;20352;-65
2022/06/29 04:53:28;;;;;;;;;;;15.40;99.90;;;;;;5087508;28;19947;-66
2022/06/29 04:55:54;;;;;;;;;;;15.30;99.90;;;;;;5071915;28;19978;-65
2022/06/29 04:58:19;;;;;;;;;;;15.20;99.90;;;;;;5054089;28;19943;-66
2022/06/29 05:00:45;;;;;;;;;;;15.20;99.90;;;;;;5071876;28;19927;-66
2022/06/29 05:03:10;;;;;;;;;;;15.10;99.90;;;;;;5071846;28;19924;-65
2022/06/29 05:05:36;;;;;;;;;;;15.50;99.90;;;;;;5071820;28;20009;-66
2022/06/29 05:08:02;;;;;;;;;;;15.50;99.90;;;;;;5071731;28;20011;-66
2022/06/29 05:10:27;;;;;;;;;;;15.50;99.90;;;;;;5071735;28;19927;-67
2022/06/29 05:12:53;;;;;;;;;;;15.50;99.90;;;;;;5071747;28;19921;-66
2022/06/29 05:15:18;;;;;;;;;;;15.70;99.90;;;;;;5070409;28;19974;-66
2022/06/29 05:17:45;;;;;;;;;;;16.00;99.90;;;;;;5071711;28;19928;-66
2022/06/29 05:20:11;;;;;;;;;;;16.10;99.90;;;;;;5071671;28;20003;-66
2022/06/29 05:22:37;;;;;;;;;;;16.10;99.90;;;;;;5071684;28;20253;-66
2022/06/29 05:25:03;;;;;;;;;;;16.30;99.90;;;;;;5071549;28;19951;-68
2022/06/29 05:27:28;;;;;;;;;;;17.60;99.90;;;;;;5071673;28;19920;-66
2022/06/29 05:29:54;;;;;;;;;;;16.40;99.90;;;;;;5074337;28;19928;-67
2022/06/29 05:32:19;;;;;;;;;;;16.10;99.90;;;;;;5075320;28;19928;-66
2022/06/29 05:34:45;;;;;;;;;;;16.30;99.90;;;;;;5075359;28;19921;-65
2022/06/29 05:37:10;;;;;;;;;;;16.60;99.90;;;;;;5075245;28;20394;-66
2022/06/29 05:39:36;;;;;;;;;;;16.40;99.90;;;;;;5075254;28;19920;-68
2022/06/29 05:42:02;;;;;;;;;;;16.80;99.90;;;;;;5075185;28;19965;-66
2022/06/29 05:44:27;;;;;;;;;;;16.70;99.90;;;;;;5074877;28;20021;-66
2022/06/29 05:46:53;;;;;;;;;;;16.90;99.90;;;;;;5075132;28;19920;-66
2022/06/29 05:49:18;;;;;;;;;;;16.70;99.90;;;;;;5075091;28;19924;-66
2022/06/29 05:51:44;;;;;;;;;;;16.60;99.90;;;;;;5073764;28;20269;-67
2022/06/29 05:54:09;;;;;;;;;;;16.80;99.90;;;;;;5074985;28;19943;-66
2022/06/29 05:56:35;;;;;;;;;;;16.70;99.90;;;;;;5074968;28;20026;-66
2022/06/29 05:59:00;;;;;;;;;;;16.90;99.90;;;;;;5074973;28;19964;-66
2022/06/29 06:01:26;;;;;;;;;;;17.00;99.90;;;;;;5073982;28;19946;-67
2022/06/29 06:03:51;;;;;;;;;;;17.10;99.90;;;;;;5069981;28;19924;-73
2022/06/29 06:06:17;;;;;;;;;;;17.10;99.90;;;;;;5073232;28;19920;-66
2022/06/29 06:08:42;;;;;;;;;;;17.30;99.90;;;;;;5073372;28;19925;-68
2022/06/29 06:11:08;;;;;;;;;;;17.40;99.90;;;;;;5071280;28;19959;-65
2022/06/29 06:13:34;;;;;;;;;;;17.80;99.90;;;;;;5073386;28;19924;-66
2022/06/29 06:15:59;;;;;;;;;;;17.90;99.90;;;;;;5072413;28;19971;-67
2022/06/29 06:18:25;;;;;;;;;;;18.10;99.90;;;;;;5072519;28;19970;-67
2022/06/29 06:20:50;;;;;;;;;;;18.40;99.90;;;;;;5073388;28;19930;-68
2022/06/29 06:23:16;;;;;;;;;;;18.40;99.90;;;;;;5073035;28;19921;-67
2022/06/29 06:25:42;;;;;;;;;;;18.40;99.90;;;;;;5070904;28;19975;-66
2022/06/29 06:28:07;;;;;;;;;;;18.60;99.90;;;;;;5074062;28;19920;-67
2022/06/29 06:30:33;;;;;;;;;;;18.60;99.90;;;;;;5089453;28;19927;-66
2022/06/29 06:32:59;;;;;;;;;;;20.10;99.90;;;;;;5056498;28;20011;-65
2022/06/29 06:35:24;;;;;;;;;;;18.70;99.90;;;;;;5074419;28;20062;-67
2022/06/29 06:37:52;;;;;;;;;;;18.80;99.90;;;;;;5067236;28;19920;-67
2022/06/29 06:43:02;;;;;;;;;;;18.90;99.90;;;;;;5073916;28;20357;-68
2022/06/29 06:45:28;;;;;;;;;;;19.00;99.90;;;;;;5074011;28;19920;-68
2022/06/29 06:47:53;;;;;;;;;;;19.30;99.90;;;;;;5073990;28;19976;-67
2022/06/29 06:50:19;;;;;;;;;;;19.30;99.90;;;;;;5056030;28;19920;-68
2022/06/29 06:52:45;;;;;;;;;;;19.40;99.90;;;;;;5073611;28;20379;-68
2022/06/29 06:55:10;;;;;;;;;;;19.50;99.90;;;;;;5073734;28;20349;-67
2022/06/29 06:57:36;;;;;;;;;;;19.40;99.90;;;;;;5073705;28;19924;-68
2022/06/29 07:00:02;;;;;;;;;;;19.60;99.90;;;;;;5073649;28;19927;-66
2022/06/29 07:02:28;;;;;;;;;;;19.50;99.90;;;;;;5073694;28;19924;-67
2022/06/29 07:04:53;;;;;;;;;;;19.50;99.90;;;;;;5073671;28;19924;-66
2022/06/29 07:07:19;;;;;;;;;;;19.70;99.90;;;;;;5072763;28;19925;-68
2022/06/29 07:09:44;;;;;;;;;;;19.80;99.90;;;;;;5073222;28;19932;-66
2022/06/29 07:12:10;;;;;;;;;;;19.90;99.90;;;;;;5073704;28;19930;-68
2022/06/29 07:14:35;;;;;;;;;;;20.20;99.90;;;;;;5073681;28;19974;-70
2022/06/29 07:17:01;;;;;;;;;;;20.20;99.90;;;;;;5072532;28;20311;-66
2022/06/29 07:19:26;;;;;;;;;;;20.60;99.90;;;;;;5073612;28;19955;-66
2022/06/29 07:21:52;;;;;;;;;;;20.90;99.90;;;;;;5088516;28;19974;-65
2022/06/29 07:24:18;;;;;;;;;;;20.40;99.90;;;;;;5066154;28;20361;-67
2022/06/29 07:26:44;;;;;;;;;;;20.80;99.90;;;;;;5053082;28;19931;-65
2022/06/29 07:29:09;;;;;;;;;;;20.80;99.90;;;;;;5052813;28;19924;-67
2022/06/29 07:31:35;;;;;;;;;;;20.60;99.90;;;;;;5053207;28;19932;-66
2022/06/29 07:34:00;;;;;;;;;;;21.10;99.90;;;;;;5053278;28;19947;-71
2022/06/29 07:36:26;;;;;;;;;;;21.10;99.90;;;;;;5053223;28;19928;-67
2022/06/29 07:38:52;;;;;;;;;;;21.30;99.90;;;;;;5053360;28;19963;-66
2022/06/29 07:41:18;;;;;;;;;;;21.40;99.90;;;;;;5053070;28;19925;-66
2022/06/29 07:43:44;;;;;;;;;;;21.40;99.90;;;;;;5052074;28;19935;-66
2022/06/29 07:46:09;;;;;;;;;;;21.40;99.90;;;;;;5086805;28;20020;-66
2022/06/29 07:48:35;;;;;;;;;;;21.50;99.90;;;;;;5071453;28;20674;-68
2022/06/29 07:51:01;;;;;;;;;;;21.70;99.90;;;;;;5085899;28;19928;-70
2022/06/29 07:53:26;;;;;;;;;;;21.90;99.90;;;;;;5070967;28;20360;-66
2022/06/29 07:55:52;;;;;;;;;;;21.70;99.90;;;;;;5071102;28;19928;-67
2022/06/29 07:58:18;;;;;;;;;;;22.00;99.90;;;;;;5070820;28;20284;-68
2022/06/29 08:00:44;;;;;;;;;;;22.00;99.90;;;;;;5062337;28;19932;-63
2022/06/29 08:03:10;;;;;;;;;;;22.50;99.90;;;;;;5051883;28;19920;-65
2022/06/29 08:05:36;;;;;;;;;;;22.50;99.90;;;;;;5052365;28;20424;-66
2022/06/29 08:08:02;;;;;;;;;;;22.50;99.90;;;;;;5065909;28;19959;-66
2022/06/29 08:10:28;;;;;;;;;;;22.80;99.90;;;;;;5072281;28;19978;-65
2022/06/29 08:12:54;;;;;;;;;;;22.70;99.90;;;;;;5072589;28;19947;-65
2022/06/29 08:15:19;;;;;;;;;;;23.00;99.90;;;;;;5072613;28;19920;-68
2022/06/29 08:17:45;;;;;;;;;;;22.80;99.90;;;;;;5071297;28;19920;-65
2022/06/29 08:20:11;;;;;;;;;;;23.00;99.90;;;;;;5072524;28;19924;-68
2022/06/29 08:22:37;;;;;;;;;;;23.30;99.90;;;;;;5072184;28;20669;-65
2022/06/29 08:25:03;;;;;;;;;;;23.20;99.90;;;;;;5072507;28;19924;-67
2022/06/29 08:27:30;;;;;;;;;;;23.20;99.90;;;;;;5072733;28;20284;-69
2022/06/29 08:29:56;;;;;;;;;;;23.30;99.90;;;;;;5067090;28;20193;-67
2022/06/29 08:32:22;;;;;;;;;;;23.30;99.90;;;;;;5070084;28;20424;-65
2022/06/29 08:34:47;;;;;;;;;;;23.40;99.90;;;;;;5070802;28;19936;-65
2022/06/29 08:37:13;;;;;;;;;;;23.10;99.90;;;;;;5070258;28;19931;-65
2022/06/29 08:39:38;;;;;;;;;;;23.70;99.90;;;;;;5069733;28;19978;-67
2022/06/29 08:42:04;;;;;;;;;;;23.80;99.90;;;;;;5070732;28;20022;-62
2022/06/29 08:44:34;;;;;;;;;;;23.50;99.90;;;;;;5070216;28;19921;-65
2022/06/29 08:47:00;;;;;;;;;;;23.80;99.90;;;;;;5065723;28;20455;-65
2022/06/29 08:49:26;;;;;;;;;;;23.90;99.90;;;;;;5070682;28;19920;-65
2022/06/29 08:51:53;;;;;;;;;;;24.10;99.90;;;;;;5069248;28;19928;-67
2022/06/29 08:54:18;;;;;;;;;;;24.00;99.90;;;;;;5070714;28;19974;-64
2022/06/29 08:56:44;;;;;;;;;;;24.10;99.90;;;;;;5070575;28;20350;-66
2022/06/29 08:59:10;;;;;;;;;;;24.30;99.90;;;;;;5068788;28;19960;-65
2022/06/29 09:01:36;;;;;;;;;;;24.60;99.90;;;;;;5069841;28;19920;-67
2022/06/29 09:04:02;;;;;;;;;;;24.70;99.90;;;;;;5074455;28;19924;-72
2022/06/29 09:06:28;;;;;;;;;;;24.30;99.90;;;;;;5073158;28;19927;-65
2022/06/29 09:08:53;;;;;;;;;;;24.90;99.90;;;;;;5074636;28;20129;-66
2022/06/29 09:11:22;;;;;;;;;;;24.70;99.90;;;;;;5073648;28;19927;-65
2022/06/29 09:13:47;;;;;;;;;;;24.50;99.90;;;;;;5073692;28;19924;-66
2022/06/29 09:16:13;;;;;;;;;;;24.60;99.90;;;;;;5074631;28;19920;-65
2022/06/29 09:18:38;;;;;;;;;;;25.00;99.90;;;;;;5074335;28;19927;-67
2022/06/29 09:21:05;;;;;;;;;;;24.50;99.90;;;;;;5072827;28;19978;-67
2022/06/29 09:23:31;;;;;;;;;;;24.90;99.90;;;;;;5074334;28;20284;-64
2022/06/29 09:25:57;;;;;;;;;;;24.90;99.90;;;;;;5074251;28;19924;-65
2022/06/29 09:28:26;;;;;;;;;;;24.80;99.90;;;;;;5073383;28;19928;-67
2022/06/29 09:30:53;;;;;;;;;;;24.90;99.90;;;;;;5072677;28;20398;-72
2022/06/29 09:33:22;;;;;;;;;;;24.60;99.90;;;;;;5070402;28;19927;-65
2022/06/29 09:36:08;;;;;;;;;;;24.70;99.90;;;;;;5073663;28;19927;-70
2022/06/29 09:38:34;;;;;;;;;;;24.80;99.90;;;;;;5071357;28;19977;-65
2022/06/29 09:40:59;;;;;;;;;;;25.00;99.90;;;;;;5073049;28;20356;-65
2022/06/29 09:43:25;;;;;;;;;;;24.60;99.90;;;;;;5073347;28;19978;-63
2022/06/29 09:45:52;;;;;;;;;;;24.70;99.90;;;;;;5073911;28;20023;-65
2022/06/29 09:48:20;;;;;;;;;;;24.80;99.90;;;;;;5074340;28;20356;-70
2022/06/29 09:50:46;;;;;;;;;;;24.70;99.90;;;;;;5071457;28;19935;-66
2022/06/29 09:53:13;;;;;;;;;;;24.80;99.90;;;;;;5073919;28;19924;-66
2022/06/29 09:55:38;;;;;;;;;;;24.80;99.90;;;;;;5073102;28;19920;-65
2022/06/29 09:58:04;;;;;;;;;;;24.60;99.90;;;;;;5073100;28;20524;-65
2022/06/29 10:03:14;;;;;;;;;;;25.50;99.90;;;;;;5073629;28;20019;-66
2022/06/29 10:05:55;;;;;;;;;;;25.60;99.90;;;;;;5073059;28;20011;-66
2022/06/29 10:08:20;;;;;;;;;;;25.80;99.90;;;;;;5070030;28;19932;-65
2022/06/29 10:10:48;;;;;;;;;;;25.90;99.90;;;;;;5069679;28;20384;-67
2022/06/29 10:16:10;;;;;;;;;;;26.10;99.90;;;;;;5074379;28;19920;-64
2022/06/29 10:18:59;;;;;;;;;;;26.30;99.90;;;;;;5084951;28;20318;-66
2022/06/29 10:21:27;;;;;;;;;;;26.30;99.90;;;;;;5062109;28;19928;-64
2022/06/29 10:23:54;;;;;;;;;;;26.30;99.90;;;;;;5074116;28;20364;-66
2022/06/29 10:26:30;;;;;;;;;;;26.10;99.90;;;;;;5074452;28;20264;-66
2022/06/29 10:28:57;;;;;;;;;;;26.40;99.90;;;;;;5074192;28;19926;-65
2022/06/29 10:31:45;;;;;;;;;;;26.40;99.90;;;;;;5072945;28;20475;-67
2022/06/29 10:34:31;;;;;;;;;;;26.80;99.90;;;;;;5068346;28;19927;-69
2022/06/29 10:36:57;;;;;;;;;;;26.60;99.90;;;;;;5074273;28;19924;-66
2022/06/29 10:39:23;;;;;;;;;;;26.50;99.90;;;;;;5074272;28;19927;-69
2022/06/29 10:44:52;;;;;;;;;;;26.60;99.90;;;;;;5074286;28;19986;-65
2022/06/29 10:47:22;;;;;;;;;;;26.80;99.90;;;;;;5068561;28;20273;-70
2022/06/29 10:49:47;;;;;;;;;;;26.90;99.90;;;;;;5040129;28;19999;-70
2022/06/29 10:52:13;;;;;;;;;;;27.00;99.90;;;;;;5058230;28;20353;-72
2022/06/29 10:54:39;;;;;;;;;;;26.80;99.90;;;;;;5071846;28;20312;-73
2022/06/29 10:57:05;;;;;;;;;;;27.40;99.90;;;;;;5071340;28;19966;-74
2022/06/29 10:59:34;;;;;;;;;;;27.20;99.90;;;;;;5088060;28;19973;-69
2022/06/29 11:02:13;;;;;;;;;;;26.80;99.90;;;;;;5072413;28;20364;-72
2022/06/29 11:04:39;;;;;;;;;;;27.30;99.90;;;;;;5072096;28;19990;-68
2022/06/29 11:12:30;;;;;;;4.60;1.80;;;27.60;99.90;;;;;;5114722;28;20050;-67
2022/06/29 11:17:49;;;;;;;2.67;1.80;;;27.40;99.90;;;;;;5130080;27;20047;-67
2022/06/29 11:20:22;;;;;;;5.93;1.70;;;27.70;99.90;;;;;;5128569;27;20425;-69
2022/06/29 11:22:49;;;;;;;3.45;1.83;;;27.40;99.90;;;;;;5129850;27;20043;-68
2022/06/29 11:25:14;;;;;;;2.25;1.83;;;27.30;99.90;;;;;;5129854;27;20066;-67
2022/06/29 11:27:40;;;;;;;2.53;1.63;;;27.60;99.90;;;;;;5129457;27;20039;-72
2022/06/29 11:30:11;;;;;;;5.53;2.10;;;27.50;99.90;;;;;;5129825;27;20055;-67
2022/06/29 11:32:41;;;;;;;3.13;1.88;;;27.20;99.90;;;;;;5129754;27;20043;-73
2022/06/29 11:35:08;;;;;;;2.72;1.80;;;27.10;99.90;;;;;;5130051;27;20112;-68
2022/06/29 11:37:34;;;;;;;2.35;2.15;;;27.20;99.90;;;;;;5129680;27;20043;-74
2022/06/29 11:40:00;;;;;;;3.58;2.00;;;27.00;99.90;;;;;;5129601;27;20050;-69
2022/06/29 11:45:19;;;;;;;3.58;2.10;;;27.80;99.90;;;;;;5129619;27;20108;-71
2022/06/29 11:47:55;;;;;;;3.90;2.03;;;27.70;99.90;;;;;;5129053;27;20487;-69
2022/06/29 11:50:21;;;;;;;3.25;2.15;;;27.80;99.90;;;;;;5129463;27;20480;-68
2022/06/29 11:52:51;;;;;;;3.40;1.80;;;28.00;99.90;;;;;;5129341;27;20124;-68
2022/06/29 11:55:40;;;;;;;2.42;1.80;;;28.00;99.90;;;;;;5129303;27;20078;-67
2022/06/29 11:58:13;;;;;;;4.70;2.00;;;28.60;99.90;;;;;;5123146;27;20032;-68
2022/06/29 12:00:39;;;;;;;3.05;1.73;;;28.10;98.50;;;;;;5122982;28;20047;-70
2022/06/29 12:03:06;;;;;;;5.65;1.90;;;28.20;99.60;;;;;;5127677;27;20069;-73
2022/06/29 12:05:31;;;;;;;4.10;1.90;;;28.30;99.40;;;;;;5127437;27;20571;-74
2022/06/29 12:07:57;;;;;;;3.75;1.88;;;28.40;98.70;;;;;;5126126;28;20083;-66
2022/06/29 12:10:23;;;;;;;3.50;2.03;;;28.20;99.60;;;;;;5126817;27;20048;-67
2022/06/29 12:12:48;;;;;;;3.38;1.58;;;28.50;98.80;;;;;;5126837;27;20112;-75
2022/06/29 12:15:16;;;;;;;6.20;1.75;;;28.80;99.50;;;;;;5127744;27;20051;-69
2022/06/29 12:17:43;;;;;;;2.33;1.60;;;28.50;98.10;;;;;;5127350;27;20050;-68
2022/06/29 12:20:09;;;;;;;1.88;1.50;;;28.40;98.50;;;;;;5117277;27;20075;-67
2022/06/29 12:22:35;;;;;;;2.92;1.65;;;28.10;98.70;;;;;;5112245;28;20051;-69
2022/06/29 12:25:00;;;;;;;4.30;1.67;;;28.60;98.60;;;;;;5113477;28;20501;-70
2022/06/29 12:27:27;;;;;;;4.30;1.98;;;28.80;98.60;;;;;;5112666;28;20540;-71
2022/06/29 12:29:53;;;;;;;2.95;1.77;;;29.50;98.90;;;;;;5112697;28;20051;-67
2022/06/29 12:32:19;;;;;;;4.35;1.50;;;28.40;98.60;;;;;;5112590;28;20611;-72
2022/06/29 12:34:44;;;;;;;4.35;1.80;;;29.10;99.00;;;;;;5111895;28;20126;-68
2022/06/29 12:37:10;;;;;;;5.13;2.00;;;28.80;98.50;;;;;;5113044;27;20062;-69
2022/06/29 12:39:36;;;;;;;3.80;1.90;;;29.00;98.80;;;;;;5113852;28;20039;-78
2022/06/29 12:42:05;;;;;;;3.17;1.83;;;29.10;98.40;;;;;;5113646;28;20059;-74
2022/06/29 12:44:30;;;;;;;2.65;1.60;;;29.10;96.70;;;;;;5114621;28;20488;-68
2022/06/29 12:46:56;;;;;;;3.13;1.77;;;29.20;97.90;;;;;;5113343;28;20050;-68
2022/06/29 12:49:22;;;;;;;2.45;1.60;;;29.40;98.50;;;;;;5114461;28;20085;-65
2022/06/29 12:51:48;;;;;;;2.63;1.83;;;29.50;97.50;;;;;;5114447;27;20083;-65
2022/06/29 12:54:14;;;;;;;2.30;1.70;;;29.40;97.90;;;;;;5114504;28;20078;-65
2022/06/29 12:56:40;;;;;;;2.60;1.50;;;29.50;97.80;;;;;;5113919;28;20101;-66
2022/06/29 12:59:06;;;;;;;3.33;1.77;;;29.80;97.00;;;;;;5113469;28;20039;-71
2022/06/29 13:01:31;;;;;;;4.20;1.40;;;29.80;96.80;;;;;;5113297;28;20050;-67
2022/06/29 13:03:57;;;;;;;2.17;1.88;;;29.50;96.70;;;;;;5113968;28;20072;-66
2022/06/29 13:06:23;;;;;;;3.40;1.70;;;29.50;97.50;;;;;;5114280;27;20693;-68
2022/06/29 13:08:49;;;;;;;3.63;1.83;;;30.10;97.10;;;;;;5113749;28;20055;-68
2022/06/29 13:11:14;;;;;;;2.92;1.70;;;30.00;96.60;;;;;;5114103;28;20071;-66
2022/06/29 13:13:40;;;;;;;2.35;1.60;;;29.70;95.90;;;;;;5114031;28;20080;-65
2022/06/29 13:16:07;;;;;;;2.47;1.73;;;29.50;95.60;;;;;;5114009;28;20051;-65
2022/06/29 13:18:33;;;;;;;3.95;2.20;;;29.70;95.20;;;;;;5114009;27;20044;-66
2022/06/29 13:20:59;;;;;;;3.70;1.88;;;29.80;95.20;;;;;;5113965;28;20116;-66
2022/06/29 13:23:25;;;;;;;1.98;1.88;;;29.80;96.10;;;;;;5113966;28;20083;-68
2022/06/29 13:25:50;;;;;;;3.15;1.90;;;30.20;95.90;;;;;;5113896;28;20047;-65
2022/06/29 13:28:16;;;;;;;2.75;1.90;;;30.20;95.90;;;;;;5113767;28;20050;-65
2022/06/29 13:30:42;;;;;;;3.75;1.90;;;30.10;96.70;;;;;;5113055;28;20039;-66
2022/06/29 13:33:08;;;;;;;3.50;1.90;;;30.30;95.70;;;;;;5113222;28;20090;-66
2022/06/29 13:35:34;;;;;;;4.13;2.38;;;30.30;95.80;;;;;;5113729;28;20051;-66
2022/06/29 13:38:00;;;;;;;3.05;2.30;;;30.40;94.80;;;;;;5113882;28;20044;-68
2022/06/29 13:40:26;;;;;;;2.67;2.10;;;30.50;94.90;;;;;;5112584;28;20070;-69
2022/06/29 13:42:52;;;;;;;2.63;2.30;;;30.20;94.70;;;;;;5113519;28;20047;-65
2022/06/29 13:45:17;;;;;;;2.40;2.20;;;30.10;95.00;;;;;;5113490;28;20043;-66
2022/06/29 13:47:43;;;;;;;2.45;2.15;;;29.80;95.20;;;;;;5113276;28;20047;-66
2022/06/29 13:50:09;;;;;;;2.53;2.28;;;29.80;95.10;;;;;;5113427;28;20042;-65
2022/06/29 13:52:35;;;;;;;3.45;2.50;;;29.80;95.10;;;;;;5113425;28;20060;-66
2022/06/29 13:55:00;;;;;;;3.60;2.42;;;29.90;95.30;;;;;;5113338;28;20059;-66
2022/06/29 13:57:26;;;;;;;2.67;2.22;;;29.90;95.50;;;;;;5111997;28;20043;-66
2022/06/29 13:59:52;;;;;;;6.75;3.00;;;29.90;95.20;;;;;;5113240;28;20051;-66
2022/06/29 14:02:18;;;;;;;13.70;6.13;;;29.90;95.70;;;;;;5113037;28;20134;-65
2022/06/29 14:04:43;;;;;;;9.02;3.10;;;30.00;96.60;;;;;;5113147;28;20055;-66
2022/06/29 14:07:09;;;;;;;5.85;3.53;;;30.40;97.20;;;;;;5113047;28;20043;-67
2022/06/29 14:09:35;;;;;;;3.90;2.75;;;30.60;96.60;;;;;;5112357;28;20120;-65
2022/06/29 14:12:01;;;;;;;3.38;2.60;;;30.90;97.00;;;;;;5112869;28;20052;-66
2022/06/29 14:14:26;;;;;;;3.13;2.60;;;31.30;96.00;;;;;;5112653;28;20131;-66
2022/06/29 14:16:52;;;;;;;3.25;2.75;;;30.90;95.50;;;;;;5112716;28;20055;-67
2022/06/29 14:19:18;;;;;;;3.03;2.70;;;31.00;94.90;;;;;;5103699;28;20499;-66